Time;durP1;ratioP1;P1;durP2;ratioP2;P2;SDS_P1;SDS_P2;PMS_P1;PMS_P2;Temp;Humidity;BMP_temperature;BMP_pressure;BME280_temperature;BME280_humidity;BME280_pressure;Samples;Min_cycle;Max_cycle;Signal;HPM_P1;HPM_P2
2023/04/24 00:00:21;;;;;;;6.10;3.20;;;;;;;11.69;54.36;99135.53;4912535;29;20051;-93
2023/04/24 00:02:47;;;;;;;6.55;3.45;;;;;;;11.63;54.13;99133.97;4895821;29;20126;-92
2023/04/24 00:05:17;;;;;;;4.20;2.70;;;;;;;11.55;54.11;99120.28;4896463;29;20114;-92
2023/04/24 00:07:44;;;;;;;5.40;2.92;;;;;;;11.47;54.12;99102.81;4911266;29;20039;-91
2023/04/24 00:10:09;;;;;;;4.93;3.20;;;;;;;11.66;54.41;99124.50;4895188;29;20067;-92
2023/04/24 00:12:35;;;;;;;4.03;3.10;;;;;;;11.63;53.99;99111.59;4895098;29;20047;-92
2023/04/24 00:15:00;;;;;;;7.75;2.97;;;;;;;11.66;54.03;99121.81;4891278;29;20056;-92
2023/04/24 00:17:26;;;;;;;7.47;2.90;;;;;;;11.62;54.86;99118.06;4907659;29;20040;-92
2023/04/24 00:19:58;;;;;;;4.03;2.90;;;;;;;11.65;54.26;99126.41;4922876;29;20039;-92
2023/04/24 00:22:23;;;;;;;4.85;2.67;;;;;;;11.59;54.36;99118.66;4896235;29;20405;-92
2023/04/24 00:24:49;;;;;;;6.43;3.20;;;;;;;11.62;55.04;99120.75;4910855;29;20107;-93
2023/04/24 00:27:14;;;;;;;7.03;3.10;;;;;;;11.53;54.54;99107.09;4911150;29;20042;-92
2023/04/24 00:29:40;;;;;;;3.67;2.50;;;;;;;11.60;55.03;99112.16;4911241;29;20103;-92
2023/04/24 00:32:05;;;;;;;5.82;2.78;;;;;;;11.52;54.55;99105.50;4911036;29;20031;-94
2023/04/24 00:34:32;;;;;;;5.25;3.00;;;;;;;11.54;54.87;99100.63;4895339;29;20032;-92
2023/04/24 00:36:57;;;;;;;5.55;3.15;;;;;;;11.54;54.80;99097.94;4911125;29;20040;-92
2023/04/24 00:39:23;;;;;;;6.30;3.05;;;;;;;11.53;54.97;99107.88;4910594;29;20102;-92
2023/04/24 00:41:48;;;;;;;10.90;2.75;;;;;;;11.47;55.23;99090.13;4894992;29;20043;-92
2023/04/24 00:44:14;;;;;;;6.68;3.30;;;;;;;11.51;55.04;99103.88;4910544;29;20039;-92
2023/04/24 00:46:40;;;;;;;6.43;2.92;;;;;;;11.52;55.62;99106.28;4909605;29;20038;-91
2023/04/24 00:49:06;;;;;;;4.88;2.85;;;;;;;11.42;55.33;99084.78;4909302;29;20036;-92
2023/04/24 00:51:32;;;;;;;6.50;2.75;;;;;;;11.44;55.40;99100.69;4894711;29;20103;-92
2023/04/24 00:54:00;;;;;;;8.23;3.10;;;;;;;11.47;55.38;99105.50;4911018;29;20040;-92
2023/04/24 00:56:26;;;;;;;4.40;3.22;;;;;;;11.46;55.66;99099.31;4912191;29;20040;-93
2023/04/24 00:58:52;;;;;;;6.82;3.40;;;;;;;11.43;55.97;99102.56;4910788;29;20047;-92
2023/04/24 01:01:21;;;;;;;4.22;3.00;;;;;;;11.31;56.45;99088.66;4911047;29;20063;-92
2023/04/24 01:03:46;;;;;;;3.90;3.05;;;;;;;11.37;55.75;99101.00;4894518;29;20046;-92
2023/04/24 01:06:12;;;;;;;6.03;3.13;;;;;;;11.28;55.93;99089.19;4910326;29;20403;-92
2023/04/24 01:08:37;;;;;;;4.70;2.90;;;;;;;11.36;56.39;99098.59;4909687;29;20028;-92
2023/04/24 01:11:03;;;;;;;6.90;3.70;;;;;;;11.38;56.21;99108.00;4908752;29;20042;-93
2023/04/24 01:13:29;;;;;;;7.95;3.33;;;;;;;11.35;56.48;99105.88;4909385;29;20051;-92
2023/04/24 01:15:54;;;;;;;5.25;3.15;;;;;;;11.32;56.00;99099.13;4909696;29;20059;-92
2023/04/24 01:18:21;;;;;;;4.88;2.85;;;;;;;11.32;55.71;99101.03;4909835;29;20031;-92
2023/04/24 01:20:47;;;;;;;8.80;3.28;;;;;;;11.36;56.07;99103.97;4894566;29;20043;-92
2023/04/24 01:23:13;;;;;;;5.75;3.10;;;;;;;11.37;56.12;99094.78;4910076;29;20035;-93
2023/04/24 01:25:39;;;;;;;5.05;3.00;;;;;;;11.39;56.11;99106.09;4910109;29;20046;-93
2023/04/24 01:28:04;;;;;;;6.55;2.78;;;;;;;11.34;56.24;99096.16;4911455;29;20027;-92
2023/04/24 01:30:30;;;;;;;4.22;2.92;;;;;;;11.31;56.67;99097.53;4910043;29;20012;-93
2023/04/24 01:32:55;;;;;;;4.47;2.53;;;;;;;11.20;56.97;99082.50;4909641;29;20036;-92
2023/04/24 01:35:20;;;;;;;12.93;3.67;;;;;;;11.23;56.85;99087.34;4909499;29;20040;-92
2023/04/24 01:37:46;;;;;;;13.02;4.20;;;;;;;11.22;58.24;99093.00;4910041;29;20036;-93
2023/04/24 01:40:11;;;;;;;10.95;4.88;;;;;;;11.08;59.66;99080.19;4893440;29;20034;-93
2023/04/24 01:42:37;;;;;;;10.57;4.53;;;;;;;10.86;60.57;99071.69;4908978;29;20040;-93
2023/04/24 01:45:03;;;;;;;6.03;4.85;;;;;;;10.73;60.43;99073.09;4909314;29;20040;-92
2023/04/24 01:47:29;;;;;;;6.13;4.03;;;;;;;10.67;60.16;99079.59;4909623;29;20075;-92
2023/04/24 01:49:55;;;;;;;5.50;4.10;;;;;;;10.57;60.11;99075.03;4924919;29;20099;-92
2023/04/24 01:52:21;;;;;;;7.25;4.20;;;;;;;10.59;60.36;99072.88;4910086;29;20043;-93
2023/04/24 01:54:46;;;;;;;7.05;3.72;;;;;;;10.62;59.79;99060.75;4925821;29;20035;-93
2023/04/24 01:57:12;;;;;;;10.35;4.35;;;;;;;10.66;60.71;99075.25;4908591;29;20043;-93
2023/04/24 01:59:37;;;;;;;5.25;3.65;;;;;;;10.61;60.32;99065.31;4909102;29;20040;-93
2023/04/24 02:02:03;;;;;;;5.35;3.47;;;;;;;10.62;60.30;99064.22;4908567;29;20039;-92
2023/04/24 02:04:28;;;;;;;8.38;3.92;;;;;;;10.57;60.41;99050.81;4908033;29;20270;-92
2023/04/24 02:06:54;;;;;;;5.90;3.42;;;;;;;10.69;60.58;99072.03;4924332;29;20040;-92
2023/04/24 02:09:19;;;;;;;6.75;3.97;;;;;;;10.70;60.71;99058.28;4923353;29;20016;-92
2023/04/24 02:11:46;;;;;;;5.25;3.55;;;;;;;10.70;60.83;99057.47;4908445;29;20035;-93
2023/04/24 02:14:11;;;;;;;6.75;3.50;;;;;;;10.68;60.90;99059.63;4915466;29;20051;-92
2023/04/24 02:16:37;;;;;;;5.18;3.22;;;;;;;10.68;60.59;99049.66;4910453;29;20520;-92
2023/04/24 02:19:03;;;;;;;6.13;3.60;;;;;;;10.72;60.89;99048.03;4916425;29;20101;-92
2023/04/24 02:21:28;;;;;;;6.53;3.75;;;;;;;10.72;61.00;99050.72;4928684;29;20035;-92
2023/04/24 02:23:54;;;;;;;6.70;3.10;;;;;;;10.78;60.43;99054.19;4927824;29;20035;-92
2023/04/24 02:26:19;;;;;;;6.38;2.83;;;;;;;10.72;60.19;99041.84;4927422;29;20505;-93
2023/04/24 02:28:45;;;;;;;7.88;2.95;;;;;;;10.71;60.29;99046.44;4928242;29;20071;-93
2023/04/24 02:31:10;;;;;;;6.03;3.50;;;;;;;10.62;59.87;99042.69;4927721;29;20042;-92
2023/04/24 02:33:36;;;;;;;3.65;2.95;;;;;;;10.66;59.88;99042.94;4927837;29;20039;-93
2023/04/24 02:36:02;;;;;;;8.30;3.25;;;;;;;10.65;60.02;99042.16;4926993;29;20090;-92
2023/04/24 02:38:28;;;;;;;4.75;3.05;;;;;;;10.67;59.79;99041.88;4926974;29;20117;-92
2023/04/24 02:40:54;;;;;;;10.15;3.60;;;;;;;10.59;61.48;99039.78;4926351;29;20086;-93
2023/04/24 02:43:20;;;;;;;6.60;3.97;;;;;;;10.55;62.24;99038.72;4926266;29;20502;-92
2023/04/24 02:45:45;;;;;;;4.63;3.25;;;;;;;10.58;61.41;99047.03;4926540;29;20506;-92
2023/04/24 02:48:11;;;;;;;5.78;3.40;;;;;;;10.53;62.09;99044.38;4927234;29;20094;-92
2023/04/24 02:50:36;;;;;;;5.35;3.33;;;;;;;10.52;60.90;99048.13;4927496;29;20035;-92
2023/04/24 02:53:01;;;;;;;3.95;2.88;;;;;;;10.55;60.41;99049.47;4927093;29;20039;-93
2023/04/24 02:55:27;;;;;;;8.07;3.10;;;;;;;10.50;60.17;99026.88;4927331;29;20035;-93
2023/04/24 02:57:53;;;;;;;5.28;3.35;;;;;;;10.53;60.66;99036.28;4927463;29;20462;-93
2023/04/24 03:00:19;;;;;;;5.97;2.83;;;;;;;10.55;60.40;99042.19;4928196;29;20035;-93
2023/04/24 03:02:44;;;;;;;7.30;3.35;;;;;;;10.55;60.15;99034.13;4927372;29;20521;-92
2023/04/24 03:05:11;;;;;;;5.18;3.00;;;;;;;10.59;59.99;99037.88;4927137;29;20043;-92
2023/04/24 03:07:37;;;;;;;6.85;3.45;;;;;;;10.46;60.21;99030.41;4926868;29;20043;-92
2023/04/24 03:10:03;;;;;;;9.10;4.32;;;;;;;10.32;63.60;99043.66;4927171;29;20039;-92
2023/04/24 03:12:29;;;;;;;8.85;4.68;;;;;;;10.07;64.26;99028.38;4930647;29;20129;-92
2023/04/24 03:14:54;;;;;;;12.02;5.22;;;;;;;9.78;65.30;99028.16;4933969;29;20055;-92
2023/04/24 03:17:21;;;;;;;15.20;5.18;;;;;;;9.80;65.13;99039.44;4934099;29;20524;-93
2023/04/24 03:19:46;;;;;;;12.40;5.40;;;;;;;9.63;65.50;99020.91;4933952;29;20477;-91
2023/04/24 03:22:12;;;;;;;8.65;4.72;;;;;;;9.62;65.19;99030.06;4933807;29;20035;-92
2023/04/24 03:24:37;;;;;;;6.70;4.75;;;;;;;9.68;64.96;99040.53;4933362;29;20035;-94
2023/04/24 03:27:03;;;;;;;9.20;4.90;;;;;;;9.67;65.37;99046.16;4934242;29;20035;-93
2023/04/24 03:29:28;;;;;;;10.20;5.55;;;;;;;9.79;65.72;99060.13;4932701;29;20039;-94
2023/04/24 03:31:54;;;;;;;9.45;3.88;;;;;;;9.80;65.34;99044.81;4932964;29;20035;-93
2023/04/24 03:34:19;;;;;;;8.32;4.93;;;;;;;9.81;64.61;99036.47;4932945;29;20050;-93
2023/04/24 03:36:47;;;;;;;14.65;7.45;;;;;;;9.58;67.10;99048.59;4932948;28;20039;-93
2023/04/24 03:39:13;;;;;;;23.08;11.50;;;;;;;9.41;67.61;99038.13;4934391;29;20036;-93
2023/04/24 03:41:38;;;;;;;17.20;8.30;;;;;;;9.27;67.67;99034.34;4949251;29;20070;-93
2023/04/24 03:44:03;;;;;;;17.23;8.02;;;;;;;9.43;66.96;99048.59;4949026;29;20050;-93
2023/04/24 03:46:29;;;;;;;20.17;8.43;;;;;;;9.43;66.96;99041.34;4933475;29;20043;-94
2023/04/24 03:48:55;;;;;;;19.77;8.32;;;;;;;9.37;67.70;99049.69;4933746;29;20592;-94
2023/04/24 03:51:20;;;;;;;14.98;7.55;;;;;;;9.32;67.76;99042.44;4916590;29;20035;-93
2023/04/24 03:53:46;;;;;;;23.08;8.48;;;;;;;9.40;67.83;99049.13;4916738;29;20046;-93
2023/04/24 03:56:11;;;;;;;23.17;8.02;;;;;;;9.41;68.12;99061.50;4933517;29;20035;-94
2023/04/24 03:58:37;;;;;;;17.45;9.27;;;;;;;9.37;68.05;99050.47;4917544;29;20035;-92
2023/04/24 04:01:02;;;;;;;15.95;9.93;;;;;;;9.34;67.96;99040.28;4919185;29;20046;-92
2023/04/24 04:03:28;;;;;;;15.75;8.95;;;;;;;9.40;67.71;99041.91;4919278;29;20509;-92
2023/04/24 04:05:54;;;;;;;20.75;9.32;;;;;;;9.46;67.76;99035.44;4933108;29;20097;-92
2023/04/24 04:08:19;;;;;;;27.38;15.38;;;;;;;9.67;66.92;99048.84;4932348;29;20059;-92
2023/04/24 04:10:45;;;;;;;20.65;10.77;;;;;;;9.63;67.54;99055.84;4931466;29;20031;-94
2023/04/24 04:13:10;;;;;;;19.52;9.75;;;;;;;9.58;67.59;99043.22;4933682;29;20031;-94
2023/04/24 04:15:36;;;;;;;19.75;8.52;;;;;;;9.69;67.97;99052.91;4914571;29;20059;-93
2023/04/24 04:18:02;;;;;;;26.35;11.85;;;;;;;9.69;67.85;99049.38;4916352;29;20035;-95
2023/04/24 04:20:47;;;;;;;18.92;10.02;;;;;;;9.79;67.54;99060.13;4938890;29;20038;-96
2023/04/24 04:23:13;;;;;;;18.05;10.32;;;;;;;9.85;66.53;99031.38;4930417;29;20043;-93
2023/04/24 04:25:38;;;;;;;20.15;8.52;;;;;;;10.01;66.83;99046.38;4927219;29;20036;-92
2023/04/24 04:28:04;;;;;;;18.08;7.72;;;;;;;10.04;67.12;99066.56;4928667;29;20031;-93
2023/04/24 04:30:31;;;;;;;18.73;8.02;;;;;;;10.11;66.04;99051.75;4926076;29;20552;-93
2023/04/24 04:32:57;;;;;;;16.67;7.80;;;;;;;10.11;65.90;99048.25;4900355;29;20099;-93
2023/04/24 04:35:23;;;;;;;13.48;7.25;;;;;;;10.19;65.59;99046.88;4900961;29;20040;-94
2023/04/24 04:37:49;;;;;;;11.55;7.68;;;;;;;10.39;64.43;99051.41;4902585;29;20098;-94
2023/04/24 04:40:14;;;;;;;16.35;7.88;;;;;;;10.57;63.76;99063.47;4897923;29;20083;-95
2023/04/24 04:42:40;;;;;;;9.55;7.32;;;;;;;10.77;63.31;99062.56;4894918;29;20051;-93
2023/04/24 04:45:11;;;;;;;17.80;9.00;;;;;;;10.88;63.06;99064.13;4894697;29;20035;-94
2023/04/24 04:47:36;;;;;;;16.20;7.20;;;;;;;11.07;61.34;99067.78;4898557;29;20055;-93
2023/04/24 04:50:03;;;;;;;27.02;10.50;;;;;;;11.31;61.28;99078.66;4896985;29;20044;-91
2023/04/24 04:52:29;;;;;;;20.83;8.60;;;;;;;11.41;60.34;99060.81;4910664;29;20056;-94
2023/04/24 04:54:55;;;;;;;15.10;7.00;;;;;;;11.52;61.19;99068.53;4897551;29;20071;-95
2023/04/24 04:57:21;;;;;;;14.73;7.03;;;;;;;11.56;60.35;99058.00;4895950;29;20036;-93
2023/04/24 04:59:46;;;;;;;18.40;8.20;;;;;;;11.68;60.01;99071.91;4896473;29;20027;-96
2023/04/24 05:02:12;;;;;;;16.52;8.80;;;;;;;11.79;60.39;99058.34;4896677;29;20036;-94
2023/04/24 05:04:37;;;;;;;16.02;6.80;;;;;;;11.73;61.08;99062.97;4897158;29;20043;-95
2023/04/24 05:07:03;;;;;;;12.50;7.07;;;;;;;11.90;60.49;99046.38;4895711;29;20185;-94
2023/04/24 05:09:29;;;;;;;24.38;7.90;;;;;;;12.13;59.34;99055.59;4896975;29;20074;-94
2023/04/24 05:11:55;;;;;;;11.10;6.95;;;;;;;12.36;57.92;99059.38;4897029;29;20047;-95
2023/04/24 05:14:24;;;;;;;8.23;3.72;;;;;;;12.33;55.50;99036.47;4902214;29;20057;-96
2023/04/24 05:16:50;;;;;;;8.68;4.60;;;;;;;12.60;55.09;99055.88;4921681;29;20035;-96
2023/04/24 05:19:23;;;;;;;9.38;4.30;;;;;;;12.80;54.64;99052.88;4927522;29;20049;-91
2023/04/24 05:22:07;;;;;;;11.35;4.75;;;;;;;12.89;54.67;99053.06;4927145;28;20019;-96
2023/04/24 05:29:43;;;;;;;15.52;6.82;;;;;;;13.26;56.59;99067.66;5489762;23;20051;-94
2023/04/24 05:32:36;;;;;;;16.45;8.73;;;;;;;13.51;56.00;99064.59;4902623;29;20048;-96
2023/04/24 05:35:18;;;;;;;;;;;;;;;13.67;54.78;99064.31;4905135;29;20055;-96
2023/04/24 05:38:11;;;;;;;9.73;4.65;;;;;;;13.53;54.09;99039.97;4934338;29;19918;-96
2023/04/24 05:40:37;;;;;;;9.07;4.53;;;;;;;13.63;53.67;99038.97;4932502;29;20036;-96
2023/04/24 05:46:18;;;;;;;14.48;6.82;;;;;;;14.19;52.25;99037.94;4949528;28;20071;-95
2023/04/24 05:48:47;;;;;;;6.05;4.13;;;;;;;14.38;51.33;99043.28;4932915;29;20070;-94
2023/04/24 05:51:23;;;;;;;10.98;4.63;;;;;;;14.46;51.01;99056.09;4917174;29;20051;-89
2023/04/24 05:54:56;;;;;;;8.40;5.20;;;;;;;14.77;50.64;99063.63;4917578;29;20047;-92
2023/04/24 05:57:34;;;;;;;5.82;3.75;;;;;;;14.73;49.79;99021.97;4937262;29;20062;-92
2023/04/24 06:00:06;;;;;;;10.70;4.90;;;;;;;14.71;50.26;99027.72;4904582;29;20410;-88
2023/04/24 06:02:33;;;;;;;9.15;4.13;;;;;;;14.67;50.01;99034.84;4894702;29;20063;-88
2023/04/24 06:05:18;;;;;;;9.07;5.00;;;;;;;14.72;50.04;99028.50;4930190;29;20117;-88
2023/04/24 06:07:47;;;;;;;9.02;4.80;;;;;;;14.81;49.36;99028.59;4932934;29;20040;-90
2023/04/24 06:10:13;;;;;;;8.15;4.43;;;;;;;15.02;49.23;99046.00;4898684;29;20099;-90
2023/04/24 06:12:44;;;;;;;14.05;6.53;;;;;;;14.94;49.44;99022.31;4916363;29;20040;-92
2023/04/24 06:15:10;;;;;;;8.88;5.03;;;;;;;15.00;49.71;99025.72;4918141;29;20052;-91
2023/04/24 06:18:31;;;;;;;9.05;4.20;;;;;;;15.23;48.37;99059.09;4903916;29;20075;-91
2023/04/24 06:20:57;;;;;;;11.80;4.70;;;;;;;14.89;48.74;99014.31;4913178;29;20047;-90
2023/04/24 06:26:28;;;;;;;8.57;3.83;;;;;;;15.39;48.20;99041.34;4905665;29;20066;-93
2023/04/24 06:28:53;;;;;;;7.55;3.67;;;;;;;15.44;48.36;99024.94;4883738;29;20033;-90
2023/04/24 06:31:20;;;;;;;6.57;3.33;;;;;;;15.55;47.52;99030.91;4899975;29;20031;-91
2023/04/24 06:33:49;;;;;;;6.05;3.50;;;;;;;15.71;47.92;99037.56;4890582;29;20244;-90
2023/04/24 06:36:15;;;;;;;10.35;4.00;;;;;;;15.77;47.50;99035.53;4901493;29;20041;-88
2023/04/24 06:38:46;;;;;;;6.22;3.10;;;;;;;15.92;46.33;99034.34;4933936;29;20036;-89
2023/04/24 06:44:14;;;;;;;8.45;3.38;;;;;;;16.04;45.43;99022.88;4923162;29;20039;-91
2023/04/24 06:46:53;;;;;;;9.32;3.90;;;;;;;16.37;45.02;99045.06;4916961;29;20036;-90
2023/04/24 06:52:34;;;;;;;9.43;3.63;;;;;;;16.57;44.80;99030.88;4920485;29;20038;-89
2023/04/24 06:55:04;;;;;;;9.40;4.30;;;;;;;16.73;44.17;99044.84;4919334;29;20036;-92
2023/04/24 06:57:31;;;;;;;12.27;8.98;;;;;;;16.85;44.05;99044.25;4911652;29;20031;-89
2023/04/24 06:59:57;;;;;;;4.85;3.20;;;;;;;16.83;43.17;99024.75;4911717;29;20043;-90
2023/04/24 07:02:22;;;;;;;7.55;4.20;;;;;;;16.96;43.04;99034.66;4911182;29;20031;-89
2023/04/24 07:04:48;;;;;;;5.63;2.83;;;;;;;17.15;43.41;99047.94;4897060;29;20035;-86
2023/04/24 07:07:16;;;;;;;6.85;3.35;;;;;;;16.92;44.27;99030.19;4908029;29;20058;-88
2023/04/24 07:10:26;;;;;;;11.40;4.80;;;;;;;17.27;43.18;99051.97;4907812;29;20031;-88
2023/04/24 07:12:52;;;;;;;7.10;3.72;;;;;;;17.33;41.41;99040.59;4923278;29;20035;-89
2023/04/24 07:15:26;;;;;;;6.60;4.25;;;;;;;17.32;41.68;99040.91;4910447;29;20042;-87
2023/04/24 07:17:56;;;;;;;23.15;13.25;;;;;;;17.50;42.02;99042.47;4910590;29;20036;-89
2023/04/24 07:21:04;;;;;;;10.55;4.57;;;;;;;17.64;41.89;99016.97;4898111;29;20181;-88
2023/04/24 07:23:45;;;;;;;13.40;5.97;;;;;;;17.91;41.71;99030.25;4929185;29;20110;-88
2023/04/24 07:26:20;;;;;;;7.55;4.30;;;;;;;18.30;41.30;99031.06;4894874;29;20542;-90
2023/04/24 07:28:55;;;;;;;10.63;5.43;;;;;;;18.55;39.84;99010.22;4905844;29;20075;-91
2023/04/24 07:31:30;;;;;;;9.73;4.28;;;;;;;18.86;39.14;99035.56;4909186;29;20104;-89
2023/04/24 07:34:04;;;;;;;8.60;5.05;;;;;;;18.89;39.13;99038.44;4907049;29;20043;-88
2023/04/24 07:36:54;;;;;;;8.70;5.22;;;;;;;18.85;39.64;99012.16;4909789;29;20040;-88
2023/04/24 07:39:37;;;;;;;6.18;3.72;;;;;;;18.95;40.25;99034.38;4890062;29;20048;-88
2023/04/24 07:42:03;;;;;;;6.20;3.22;;;;;;;18.94;38.90;99032.75;4869282;29;20116;-88
2023/04/24 07:44:29;;;;;;;3.90;3.03;;;;;;;19.11;38.27;99039.22;4854350;29;20052;-88
2023/04/24 07:46:54;;;;;;;9.02;3.30;;;;;;;19.41;37.69;99041.88;4853889;29;20531;-87
2023/04/24 07:49:22;;;;;;;7.97;4.53;;;;;;;19.44;36.64;99016.59;4893432;29;20033;-88
2023/04/24 07:51:49;;;;;;;7.18;4.68;;;;;;;19.77;37.23;99016.63;4873377;29;20539;-88
2023/04/24 07:54:15;;;;;;;5.63;3.78;;;;;;;20.10;38.05;99043.09;4871247;29;20036;-90
2023/04/24 07:56:43;;;;;;;9.30;3.35;;;;;;;20.08;37.28;99007.09;4870706;29;20033;-89
2023/04/24 07:59:10;;;;;;;7.53;3.20;;;;;;;19.74;37.04;99007.16;4871971;29;20039;-89
2023/04/24 08:01:36;;;;;;;6.38;3.97;;;;;;;19.95;37.46;99025.41;4893831;29;20130;-88
2023/04/24 08:04:04;;;;;;;7.53;3.63;;;;;;;19.79;37.22;99008.88;4908670;29;20087;-89
2023/04/24 08:06:38;;;;;;;6.78;3.45;;;;;;;19.66;36.98;99015.44;4925123;29;20046;-89
2023/04/24 08:09:10;;;;;;;7.30;4.25;;;;;;;19.83;37.46;99009.78;4937763;29;20525;-87
2023/04/24 08:11:44;;;;;;;5.28;3.67;;;;;;;19.88;36.90;99003.31;4923913;28;20118;-88
2023/04/24 08:14:14;;;;;;;10.48;3.70;;;;;;;20.08;36.18;99013.34;4932194;29;20413;-89
2023/04/24 08:16:40;;;;;;;6.70;3.20;;;;;;;20.19;35.95;99011.78;4927907;29;20055;-89
2023/04/24 08:19:48;;;;;;;7.32;3.63;;;;;;;20.46;36.00;99025.09;4928953;29;20039;-89
2023/04/24 08:22:27;;;;;;;7.18;3.55;;;;;;;20.65;34.77;99022.59;4867904;29;20131;-86
2023/04/24 08:24:56;;;;;;;5.72;3.00;;;;;;;20.95;33.66;99033.25;4988250;23;20055;-94
2023/04/24 08:27:26;;;;;;;5.93;2.97;;;;;;;20.73;32.89;99015.41;4956669;28;20107;-88
2023/04/24 08:30:02;;;;;;;6.40;2.45;;;;;;;20.69;33.38;99004.38;4952227;28;20035;-87
2023/04/24 08:32:41;;;;;;;5.20;2.80;;;;;;;20.69;34.03;99009.00;4950421;28;20038;-89
2023/04/24 08:35:12;;;;;;;4.03;2.95;;;;;;;20.73;33.89;99018.94;4956278;28;20094;-88
2023/04/24 08:37:38;;;;;;;8.02;2.83;;;;;;;20.50;33.91;99017.78;4958333;28;20038;-87
2023/04/24 08:40:09;;;;;;;9.68;5.00;;;;;;;20.34;34.16;99014.97;4950927;28;20095;-88
2023/04/24 08:42:44;;;;;;;5.40;2.88;;;;;;;20.19;34.52;99017.25;4951296;28;20039;-88
2023/04/24 08:45:11;;;;;;;5.60;2.83;;;;;;;19.99;34.91;99008.00;4950820;28;20035;-88
2023/04/24 08:47:45;;;;;;;6.57;4.38;;;;;;;19.96;35.28;99002.41;4949895;29;20062;-90
2023/04/24 08:50:11;;;;;;;5.82;3.03;;;;;;;20.06;35.06;99028.50;4955976;29;20041;-87
2023/04/24 08:52:42;;;;;;;4.85;2.67;;;;;;;19.98;35.51;99016.53;4940906;29;20031;-89
2023/04/24 08:55:07;;;;;;;7.18;3.28;;;;;;;19.80;35.82;98996.81;4948231;29;20042;-89
2023/04/24 08:57:33;;;;;;;4.30;2.95;;;;;;;19.85;35.39;99007.53;4928754;29;20035;-88
2023/04/24 08:59:59;;;;;;;6.53;3.00;;;;;;;19.99;35.37;99005.25;4947228;28;20042;-88
2023/04/24 09:02:25;;;;;;;4.97;3.05;;;;;;;20.17;36.31;99019.53;4959492;28;20046;-88
2023/04/24 09:04:50;;;;;;;6.13;3.10;;;;;;;20.17;35.76;99002.31;4948102;28;20023;-89
2023/04/24 09:07:17;;;;;;;5.57;3.08;;;;;;;20.20;36.40;99001.63;4971850;28;20039;-89
2023/04/24 09:09:43;;;;;;;15.10;11.30;;;;;;;20.33;36.69;99014.16;4948194;29;20023;-89
2023/04/24 09:12:10;;;;;;;7.25;3.55;;;;;;;20.56;35.44;99009.00;4931368;29;20035;-89
2023/04/24 09:14:39;;;;;;;12.57;4.72;;;;;;;20.73;35.74;99018.94;4932410;28;20029;-90
2023/04/24 09:17:05;;;;;;;3.83;2.70;;;;;;;20.76;35.44;99011.97;4933577;29;20042;-90
2023/04/24 09:19:36;;;;;;;5.53;3.70;;;;;;;20.88;35.70;99019.38;4947103;28;20473;-90
2023/04/24 09:22:08;;;;;;;129.55;64.80;;;;;;;20.82;35.96;99024.28;4945829;29;20102;-91
2023/04/24 09:24:36;;;;;;;5.57;3.40;;;;;;;20.81;35.75;99008.19;4952666;29;20058;-92
2023/04/24 09:27:04;;;;;;;4.32;2.60;;;;;;;21.02;34.94;99008.81;4948055;29;20052;-89
2023/04/24 09:29:35;;;;;;;16.38;12.02;;;;;;;21.01;34.49;98990.03;4930257;29;20058;-91
2023/04/24 09:32:18;;;;;;;10.10;6.97;;;;;;;21.45;34.47;99009.25;4951728;29;20123;-93
2023/04/24 09:34:57;;;;;;;6.07;2.38;;;;;;;21.25;33.99;99000.06;4934012;28;20028;-90
2023/04/24 09:37:48;;;;;;;6.60;3.53;;;;;;;21.23;34.87;98975.78;4948607;29;20043;-90
2023/04/24 09:41:08;;;;;;;3.25;2.50;;;;;;;21.50;32.43;98995.28;4939915;28;20035;-90
2023/04/24 09:44:06;;;;;;;6.20;3.63;;;;;;;21.36;31.55;98968.31;4906296;28;20165;-90
2023/04/24 09:46:40;;;;;;;5.10;3.28;;;;;;;21.52;32.22;98971.09;4952047;28;20038;-89
2023/04/24 09:49:16;;;;;;;4.40;2.67;;;;;;;21.53;30.32;98984.44;4958779;28;20031;-88
2023/04/24 09:51:52;;;;;;;6.85;2.88;;;;;;;21.72;31.51;99000.19;4956571;28;20472;-88
2023/04/24 09:54:21;;;;;;;4.38;2.95;;;;;;;21.76;31.28;98990.13;4979666;28;20039;-88
2023/04/24 09:56:50;;;;;;;7.35;3.50;;;;;;;21.82;31.20;98987.13;4964761;28;20038;-88
2023/04/24 09:59:54;;;;;;;6.03;3.40;;;;;;;21.87;31.57;98982.19;4969203;28;20031;-92
2023/04/24 10:08:50;;;;;;;6.00;2.90;;;;;;;21.89;31.27;98968.91;4839722;29;20124;-88
2023/04/24 10:11:16;;;;;;;8.90;3.08;;;;;;;21.52;33.04;98979.31;4944740;28;20079;-89
2023/04/24 10:14:04;;;;;;;3.65;2.65;;;;;;;21.82;33.14;98987.13;4953083;28;20031;-90
2023/04/24 10:16:35;;;;;;;7.38;3.70;;;;;;;21.92;32.70;98972.91;4948161;28;20034;-91
2023/04/24 10:19:20;;;;;;;13.25;8.30;;;;;;;22.17;30.87;98965.28;4964509;28;20037;-90
2023/04/24 10:21:53;;;;;;;6.22;4.22;;;;;;;22.36;31.13;98976.31;4978384;28;20121;-90
2023/04/24 10:24:25;;;;;;;8.13;3.40;;;;;;;22.68;31.99;98980.91;4978625;28;20134;-88
2023/04/24 10:26:53;;;;;;;8.23;3.17;;;;;;;22.44;31.83;98955.34;4947909;28;20053;-89
2023/04/24 10:29:19;;;;;;;9.48;2.90;;;;;;;22.56;31.20;98981.88;4948052;28;20049;-90
2023/04/24 10:31:46;;;;;;;10.32;3.20;;;;;;;22.39;31.76;98950.09;4964551;28;20504;-90
2023/04/24 10:34:17;;;;;;;6.68;3.03;;;;;;;22.11;32.41;98952.97;4945953;28;20030;-90
2023/04/24 10:37:15;;;;;;;8.18;2.97;;;;;;;22.18;32.60;98964.09;4965695;28;20065;-91
2023/04/24 10:39:41;;;;;;;5.63;2.70;;;;;;;22.31;31.84;98957.41;4949602;28;20038;-89
2023/04/24 10:42:16;;;;;;;6.82;2.80;;;;;;;22.36;31.80;98981.81;4960114;28;20094;-89
2023/04/24 10:44:42;;;;;;;6.28;2.75;;;;;;;22.04;30.99;98966.50;4953723;29;20035;-96
2023/04/24 10:47:21;;;;;;;4.43;2.97;;;;;;;21.82;31.24;98974.22;4937391;28;20046;-95
2023/04/24 10:49:47;;;;;;;6.88;3.10;;;;;;;21.57;31.62;98946.19;4956538;29;20067;-96
2023/04/24 10:52:16;;;;;;;4.93;2.55;;;;;;;21.44;32.32;98940.00;4934901;29;20031;-96
2023/04/24 10:54:45;;;;;;;6.38;3.10;;;;;;;21.65;32.42;98955.38;4955865;29;20126;-96
2023/04/24 10:57:25;;;;;;;5.93;2.97;;;;;;;21.84;32.76;98973.88;4938275;29;20032;-96
2023/04/24 11:00:20;;;;;;;5.72;2.67;;;;;;;21.97;32.35;98969.88;4970481;28;20047;-93
2023/04/24 11:02:57;;;;;;;6.70;3.53;;;;;;;21.69;32.40;98950.78;4964188;29;20075;-94
2023/04/24 11:06:12;;;;;;;7.47;2.90;;;;;;;22.07;32.86;98924.69;4934171;29;20159;-94
2023/04/24 11:08:50;;;;;;;10.27;3.75;;;;;;;22.59;31.66;98948.19;4927925;29;20076;-95
2023/04/24 11:11:27;;;;;;;6.95;2.60;;;;;;;22.83;31.16;98951.81;4894912;29;20132;-95
2023/04/24 11:14:05;;;;;;;6.85;3.15;;;;;;;22.97;31.09;98941.13;4913485;29;20047;-96
2023/04/24 11:16:55;;;;;;;4.82;3.08;;;;;;;23.06;31.25;98944.50;4932906;29;20040;-96
2023/04/24 11:19:26;;;;;;;8.13;5.03;;;;;;;23.13;30.37;98930.88;4936104;29;20499;-95
2023/04/24 11:22:26;;;;;;;7.32;2.83;;;;;;;22.77;30.39;98916.44;4938981;29;20042;-96
2023/04/24 11:43:18;;;;;;;3.70;2.33;;;;;;;21.79;31.27;98917.38;1503124;23;20316;-92
2023/04/24 11:45:56;;;;;;;4.93;3.58;;;;;;;21.94;31.84;98902.84;4999366;28;20050;-95
2023/04/24 11:48:36;;;;;;;6.68;2.50;;;;;;;22.49;30.84;98902.13;4968197;28;20034;-94
2023/04/24 11:51:08;;;;;;;7.40;3.00;;;;;;;22.23;31.00;98854.16;4976899;28;20042;-88
2023/04/24 11:53:36;;;;;;;8.60;2.90;;;;;;;22.40;31.49;98859.22;4974164;28;20042;-88
2023/04/24 11:56:05;;;;;;;5.00;3.13;;;;;;;22.79;31.47;98888.63;4953383;28;20077;-89
2023/04/24 11:59:00;;;;;;;6.20;2.60;;;;;;;22.39;32.04;98885.09;4954274;28;20069;-90
2023/04/24 12:01:26;;;;;;;3.65;2.70;;;;;;;21.80;32.00;98847.69;4974912;28;20038;-87
2023/04/24 12:04:05;;;;;;;6.93;2.40;;;;;;;21.94;32.64;98861.72;4958149;28;20037;-88
2023/04/24 12:06:33;;;;;;;9.15;4.60;;;;;;;21.98;32.55;98872.78;4974340;28;20046;-87
2023/04/24 12:09:13;;;;;;;;;;;;;;;;;;;;;
2023/04/24 12:11:47;;;;;;;6.95;2.80;;;;;;;22.36;31.26;98858.34;4994235;28;20122;-89
2023/04/24 12:14:27;;;;;;;6.60;2.85;;;;;;;22.38;31.11;98836.06;4999541;28;20114;-89
2023/04/24 12:16:52;;;;;;;5.68;3.20;;;;;;;22.42;32.25;98838.88;4964611;28;20034;-89
2023/04/24 12:19:46;;;;;;;7.10;3.03;;;;;;;22.62;31.91;98845.97;4955646;28;20118;-92
2023/04/24 12:22:12;;;;;;;3.65;2.83;;;;;;;23.05;30.30;98846.00;4992687;28;20143;-87
2023/04/24 12:24:56;;;;;;;4.60;2.60;;;;;;;22.89;30.75;98840.56;4952377;28;20061;-88
2023/04/24 12:27:56;;;;;;;13.32;4.18;;;;;;;22.91;32.42;98819.84;4957124;28;20431;-89
2023/04/24 12:33:42;;;;;;;;;;;;;;;;;;;;;
2023/04/24 12:36:12;;;;;;;6.68;2.72;;;;;;;23.62;30.35;98832.44;4971806;28;20113;-89